DKH5852 ZBTJ-ZGGG
Flight info
| Callsign | DKH5852 |
|---|---|
| Flight time | N/A |
| Altitude | 36100 |
| Route | OMDE2W OMDEK W37 GUSIV V52 OPUNI R473 BEMAG V5 IRTAT IRTAT5 |
| Aircraft | A320/M-SDE3FGHILORWXY/LB1 |
Departure
| Time | 2026-04-23 07:59 |
|---|---|
| Airport | Tianjin Binhai International Airport (ZBTJ) |
Arrival
| Time | N/A |
|---|---|
| Airport | Guangzhou Baiyun International Airport (ZGGG) |
| Time | Latitude | Longitude | Altitude | Speed | Heading |
|---|---|---|---|---|---|
| 2026-04-23 07:16 | 39.12768 | 117.35912 | 19 ft | 0 kts | 244° |
| 2026-04-23 07:24 | 39.12768 | 117.35913 | 19 ft | 0 kts | 244° |
| 2026-04-23 07:25 | 39.12769 | 117.35913 | 19 ft | 0 kts | 244° |
| 2026-04-23 07:32 | 39.12770 | 117.35918 | 19 ft | 2 kts | 242° |
| 2026-04-23 07:33 | 39.12773 | 117.35925 | 20 ft | 0 kts | 244° |
| 2026-04-23 07:38 | 39.12774 | 117.35925 | 19 ft | 0 kts | 244° |
| 2026-04-23 07:41 | 39.12779 | 117.35937 | 19 ft | 2 kts | 245° |
| 2026-04-23 07:41 | 39.12786 | 117.35956 | 42 ft | 2 kts | 248° |
| 2026-04-23 07:42 | 39.12792 | 117.35976 | 43 ft | 2 kts | 269° |
| 2026-04-23 07:42 | 39.12790 | 117.35997 | 16 ft | 2 kts | 298° |
| 2026-04-23 07:42 | 39.12783 | 117.36012 | 22 ft | 1 kts | 311° |
| 2026-04-23 07:42 | 39.12781 | 117.36014 | 21 ft | 0 kts | 312° |
| 2026-04-23 07:44 | 39.12798 | 117.35995 | 37 ft | 4 kts | 323° |
| 2026-04-23 07:44 | 39.12818 | 117.35981 | 19 ft | 3 kts | 336° |
| 2026-04-23 07:44 | 39.12844 | 117.35966 | 19 ft | 9 kts | 336° |
| 2026-04-23 07:44 | 39.12911 | 117.35960 | 19 ft | 10 kts | 35° |
| 2026-04-23 07:45 | 39.12909 | 117.36052 | 21 ft | 10 kts | 123° |
| 2026-04-23 07:45 | 39.12870 | 117.36121 | 19 ft | 9 kts | 126° |
| 2026-04-23 07:45 | 39.12838 | 117.36176 | 21 ft | 7 kts | 126° |
| 2026-04-23 07:45 | 39.12814 | 117.36219 | 19 ft | 5 kts | 126° |
| 2026-04-23 07:46 | 39.12792 | 117.36258 | 21 ft | 5 kts | 126° |
| 2026-04-23 07:46 | 39.12768 | 117.36286 | 19 ft | 4 kts | 150° |
| 2026-04-23 07:46 | 39.12747 | 117.36301 | 20 ft | 3 kts | 150° |
| 2026-04-23 07:46 | 39.12718 | 117.36318 | 21 ft | 10 kts | 154° |
| 2026-04-23 07:47 | 39.12638 | 117.36367 | 19 ft | 14 kts | 154° |
| 2026-04-23 07:47 | 39.12548 | 117.36423 | 19 ft | 15 kts | 154° |
| 2026-04-23 07:47 | 39.12460 | 117.36467 | 19 ft | 11 kts | 192° |
| 2026-04-23 07:47 | 39.12414 | 117.36387 | 19 ft | 12 kts | 244° |
| 2026-04-23 07:48 | 39.12373 | 117.36276 | 19 ft | 16 kts | 244° |
| 2026-04-23 07:48 | 39.12319 | 117.36131 | 19 ft | 20 kts | 244° |
| 2026-04-23 07:48 | 39.12254 | 117.35958 | 19 ft | 22 kts | 244° |
| 2026-04-23 07:48 | 39.12187 | 117.35777 | 19 ft | 23 kts | 244° |
| 2026-04-23 07:49 | 39.12135 | 117.35637 | 19 ft | 11 kts | 245° |
| 2026-04-23 07:49 | 39.12157 | 117.35561 | 20 ft | 10 kts | 333° |
| 2026-04-23 07:49 | 39.12221 | 117.35521 | 19 ft | 11 kts | 334° |
| 2026-04-23 07:49 | 39.12290 | 117.35478 | 19 ft | 12 kts | 334° |
| 2026-04-23 07:50 | 39.12317 | 117.35462 | 19 ft | 1 kts | 337° |
| 2026-04-23 07:50 | 39.12310 | 117.35423 | 19 ft | 8 kts | 243° |
| 2026-04-23 07:50 | 39.12281 | 117.35346 | 19 ft | 13 kts | 244° |
| 2026-04-23 07:50 | 39.12233 | 117.35214 | 19 ft | 18 kts | 244° |
| 2026-04-23 07:51 | 39.12194 | 117.35107 | 19 ft | 12 kts | 245° |
| 2026-04-23 07:51 | 39.12207 | 117.35014 | 19 ft | 12 kts | 330° |
| 2026-04-23 07:51 | 39.12276 | 117.34971 | 19 ft | 11 kts | 334° |
| 2026-04-23 07:51 | 39.12355 | 117.34922 | 19 ft | 14 kts | 334° |
| 2026-04-23 07:52 | 39.12436 | 117.34873 | 19 ft | 12 kts | 335° |
| 2026-04-23 07:52 | 39.12506 | 117.34831 | 19 ft | 10 kts | 334° |
| 2026-04-23 07:52 | 39.12580 | 117.34785 | 19 ft | 16 kts | 334° |
| 2026-04-23 07:52 | 39.12689 | 117.34717 | 19 ft | 17 kts | 334° |
| 2026-04-23 07:53 | 39.12790 | 117.34655 | 21 ft | 15 kts | 334° |
| 2026-04-23 07:53 | 39.12878 | 117.34602 | 20 ft | 13 kts | 334° |
| 2026-04-23 07:53 | 39.12954 | 117.34555 | 19 ft | 13 kts | 334° |
| 2026-04-23 07:53 | 39.13045 | 117.34499 | 19 ft | 14 kts | 334° |
| 2026-04-23 07:54 | 39.13127 | 117.34450 | 19 ft | 12 kts | 335° |
| 2026-04-23 07:54 | 39.13196 | 117.34408 | 19 ft | 10 kts | 335° |
| 2026-04-23 07:54 | 39.13255 | 117.34372 | 19 ft | 9 kts | 335° |
| 2026-04-23 07:54 | 39.13326 | 117.34329 | 19 ft | 14 kts | 334° |
| 2026-04-23 07:55 | 39.13434 | 117.34262 | 21 ft | 20 kts | 334° |
| 2026-04-23 07:55 | 39.13554 | 117.34187 | 21 ft | 19 kts | 334° |
| 2026-04-23 07:55 | 39.13668 | 117.34117 | 21 ft | 17 kts | 334° |
| 2026-04-23 07:55 | 39.13769 | 117.34053 | 20 ft | 15 kts | 335° |
| 2026-04-23 07:56 | 39.13859 | 117.33999 | 20 ft | 13 kts | 335° |
| 2026-04-23 07:56 | 39.13941 | 117.33950 | 19 ft | 14 kts | 335° |
| 2026-04-23 07:56 | 39.14039 | 117.33889 | 19 ft | 16 kts | 334° |
| 2026-04-23 07:56 | 39.14110 | 117.33827 | 21 ft | 11 kts | 296° |
| 2026-04-23 07:57 | 39.14095 | 117.33749 | 20 ft | 9 kts | 246° |
| 2026-04-23 07:57 | 39.14071 | 117.33681 | 19 ft | 8 kts | 246° |
| 2026-04-23 07:57 | 39.14044 | 117.33627 | 19 ft | 5 kts | 195° |
| 2026-04-23 07:57 | 39.14017 | 117.33645 | 19 ft | 4 kts | 154° |
| 2026-04-23 07:58 | 39.13947 | 117.33689 | 19 ft | 27 kts | 154° |
| 2026-04-23 07:58 | 39.13557 | 117.33930 | 20 ft | 95 kts | 155° |
| 2026-04-23 07:58 | 39.12801 | 117.34392 | 21 ft | 146 kts | 154° |
| 2026-04-23 07:58 | 39.11756 | 117.35035 | 231 ft | 171 kts | 155° |
| 2026-04-23 07:59 | 39.10711 | 117.35679 | 953 ft | 169 kts | 158° |
| 2026-04-23 07:59 | 39.09649 | 117.36336 | 1676 ft | 170 kts | 158° |
| 2026-04-23 07:59 | 39.08534 | 117.37020 | 2161 ft | 188 kts | 158° |
| 2026-04-23 07:59 | 39.07282 | 117.37783 | 2519 ft | 210 kts | 158° |
| 2026-04-23 08:00 | 39.05906 | 117.38625 | 2975 ft | 229 kts | 158° |
| 2026-04-23 08:00 | 39.04445 | 117.39525 | 3698 ft | 235 kts | 158° |
| 2026-04-23 08:00 | 39.02963 | 117.40440 | 4514 ft | 238 kts | 158° |
| 2026-04-23 08:00 | 39.01454 | 117.41370 | 5269 ft | 243 kts | 158° |
| 2026-04-23 08:01 | 38.99901 | 117.42323 | 5922 ft | 252 kts | 158° |
| 2026-04-23 08:01 | 38.98213 | 117.43126 | 6330 ft | 267 kts | 177° |
| 2026-04-23 08:01 | 38.96368 | 117.42895 | 6753 ft | 270 kts | 204° |
| 2026-04-23 08:01 | 38.94825 | 117.41614 | 6855 ft | 264 kts | 231° |
| 2026-04-23 08:02 | 38.93916 | 117.39607 | 6884 ft | 261 kts | 249° |
| 2026-04-23 08:02 | 38.93235 | 117.37446 | 6884 ft | 261 kts | 249° |
| 2026-04-23 08:02 | 38.92546 | 117.35286 | 6883 ft | 261 kts | 248° |
| 2026-04-23 08:02 | 38.91722 | 117.33199 | 6947 ft | 265 kts | 244° |
| 2026-04-23 08:03 | 38.90860 | 117.31083 | 7710 ft | 267 kts | 244° |
| 2026-04-23 08:03 | 38.89994 | 117.28964 | 8533 ft | 270 kts | 244° |
| 2026-04-23 08:03 | 38.89115 | 117.26816 | 9307 ft | 274 kts | 244° |
| 2026-04-23 08:03 | 38.88224 | 117.24638 | 10044 ft | 278 kts | 244° |
| 2026-04-23 08:04 | 38.87316 | 117.22415 | 10586 ft | 289 kts | 244° |
| 2026-04-23 08:04 | 38.86348 | 117.20043 | 10783 ft | 312 kts | 244° |
| 2026-04-23 08:04 | 38.85301 | 117.17485 | 10931 ft | 335 kts | 244° |
| 2026-04-23 08:04 | 38.84184 | 117.14757 | 11073 ft | 356 kts | 243° |
| 2026-04-23 08:05 | 38.82999 | 117.11872 | 11285 ft | 373 kts | 243° |
| 2026-04-23 08:05 | 38.81778 | 117.08904 | 11803 ft | 379 kts | 244° |
| 2026-04-23 08:05 | 38.80542 | 117.05898 | 12393 ft | 383 kts | 244° |
| 2026-04-23 08:05 | 38.79293 | 117.02863 | 12971 ft | 387 kts | 244° |
| 2026-04-23 08:06 | 38.78028 | 116.99802 | 13539 ft | 391 kts | 243° |
| 2026-04-23 08:06 | 38.76751 | 116.96712 | 14031 ft | 394 kts | 244° |
| 2026-04-23 08:06 | 38.75461 | 116.93591 | 14494 ft | 398 kts | 244° |
| 2026-04-23 08:06 | 38.74155 | 116.90447 | 14670 ft | 400 kts | 243° |
| 2026-04-23 08:07 | 38.72834 | 116.87316 | 14696 ft | 400 kts | 243° |
| 2026-04-23 08:07 | 38.71503 | 116.84182 | 14701 ft | 400 kts | 243° |
| 2026-04-23 08:07 | 38.70168 | 116.81050 | 14698 ft | 401 kts | 243° |
| 2026-04-23 08:07 | 38.68831 | 116.77922 | 14697 ft | 401 kts | 243° |
| 2026-04-23 08:08 | 38.67494 | 116.74792 | 14696 ft | 401 kts | 244° |
| 2026-04-23 08:08 | 38.66160 | 116.71662 | 14699 ft | 401 kts | 243° |
| 2026-04-23 08:08 | 38.65003 | 116.68437 | 14698 ft | 398 kts | 252° |
| 2026-04-23 08:08 | 38.64316 | 116.65021 | 14701 ft | 397 kts | 263° |
| 2026-04-23 08:09 | 38.64119 | 116.61514 | 14700 ft | 395 kts | 273° |
| 2026-04-23 08:09 | 38.64232 | 116.58009 | 14702 ft | 394 kts | 274° |
| 2026-04-23 08:09 | 38.64338 | 116.54505 | 14701 ft | 394 kts | 274° |
| 2026-04-23 08:09 | 38.64433 | 116.51000 | 14697 ft | 394 kts | 273° |
| 2026-04-23 08:10 | 38.64525 | 116.47495 | 14697 ft | 394 kts | 273° |
| 2026-04-23 08:10 | 38.64614 | 116.43992 | 14696 ft | 394 kts | 273° |
| 2026-04-23 08:10 | 38.64796 | 116.36979 | 14695 ft | 394 kts | 273° |
| 2026-04-23 08:11 | 38.64888 | 116.33473 | 14696 ft | 394 kts | 273° |
| 2026-04-23 08:11 | 38.64979 | 116.29970 | 14695 ft | 394 kts | 273° |
| 2026-04-23 08:11 | 38.65067 | 116.26468 | 14693 ft | 394 kts | 273° |
| 2026-04-23 08:11 | 38.65152 | 116.22961 | 14695 ft | 394 kts | 273° |
| 2026-04-23 08:12 | 38.65237 | 116.19470 | 14693 ft | 394 kts | 273° |
| 2026-04-23 08:12 | 38.65074 | 116.15964 | 14691 ft | 396 kts | 261° |
| 2026-04-23 08:12 | 38.64226 | 116.12609 | 14693 ft | 399 kts | 246° |
| 2026-04-23 08:12 | 38.62714 | 116.09619 | 14720 ft | 406 kts | 231° |
| 2026-04-23 08:13 | 38.60591 | 116.07201 | 15211 ft | 413 kts | 216° |
| 2026-04-23 08:13 | 38.58020 | 116.05503 | 15696 ft | 421 kts | 203° |
| 2026-04-23 08:13 | 38.55272 | 116.04165 | 16164 ft | 424 kts | 202° |
| 2026-04-23 08:13 | 38.52530 | 116.02855 | 16618 ft | 428 kts | 202° |
| 2026-04-23 08:14 | 38.49690 | 116.01511 | 17080 ft | 431 kts | 202° |
| 2026-04-23 08:14 | 38.46862 | 116.00176 | 17530 ft | 435 kts | 202° |
| 2026-04-23 08:14 | 38.44011 | 115.98828 | 17993 ft | 438 kts | 202° |
| 2026-04-23 08:14 | 38.41143 | 115.97468 | 18403 ft | 441 kts | 202° |
| 2026-04-23 08:15 | 38.38261 | 115.96095 | 18793 ft | 444 kts | 202° |
| 2026-04-23 08:15 | 38.35356 | 115.94711 | 19189 ft | 446 kts | 202° |
| 2026-04-23 08:15 | 38.32480 | 115.93344 | 19578 ft | 449 kts | 202° |
| 2026-04-23 08:15 | 38.30498 | 115.92403 | 19837 ft | 450 kts | 202° |
| 2026-04-23 08:16 | 38.27482 | 115.91278 | 20206 ft | 454 kts | 193° |
| 2026-04-23 08:16 | 38.23317 | 115.90534 | 20686 ft | 458 kts | 188° |
| 2026-04-23 08:16 | 38.20143 | 115.90051 | 21043 ft | 461 kts | 188° |
| 2026-04-23 08:16 | 38.16952 | 115.89554 | 21390 ft | 463 kts | 188° |
| 2026-04-23 08:17 | 38.13750 | 115.89047 | 21743 ft | 465 kts | 188° |
| 2026-04-23 08:17 | 38.11577 | 115.88701 | 21977 ft | 467 kts | 188° |
| 2026-04-23 08:17 | 38.08347 | 115.88191 | 22317 ft | 469 kts | 188° |
| 2026-04-23 08:17 | 38.04045 | 115.87514 | 22754 ft | 472 kts | 188° |
| 2026-04-23 08:18 | 38.00774 | 115.87002 | 23066 ft | 474 kts | 188° |
| 2026-04-23 08:18 | 37.97491 | 115.86491 | 23377 ft | 477 kts | 188° |
| 2026-04-23 08:18 | 37.94192 | 115.85981 | 23642 ft | 479 kts | 188° |
| 2026-04-23 08:18 | 37.91951 | 115.85635 | 23814 ft | 480 kts | 188° |
| 2026-04-23 08:19 | 37.88631 | 115.85122 | 24065 ft | 482 kts | 188° |
| 2026-04-23 08:19 | 37.85293 | 115.84592 | 24326 ft | 484 kts | 188° |
| 2026-04-23 08:19 | 37.81950 | 115.84043 | 24596 ft | 486 kts | 188° |
| 2026-04-23 08:19 | 37.78598 | 115.83483 | 24850 ft | 487 kts | 188° |
| 2026-04-23 08:20 | 37.75278 | 115.82927 | 25159 ft | 487 kts | 189° |
| 2026-04-23 08:20 | 37.71926 | 115.82052 | 25519 ft | 485 kts | 197° |
| 2026-04-23 08:20 | 37.68766 | 115.80620 | 25887 ft | 482 kts | 205° |
| 2026-04-23 08:20 | 37.65752 | 115.78889 | 26237 ft | 481 kts | 206° |
| 2026-04-23 08:21 | 37.62710 | 115.77148 | 26610 ft | 480 kts | 206° |
| 2026-04-23 08:21 | 37.59667 | 115.75413 | 26984 ft | 479 kts | 206° |
| 2026-04-23 08:21 | 37.56629 | 115.73687 | 27356 ft | 478 kts | 206° |
| 2026-04-23 08:21 | 37.53596 | 115.71969 | 27736 ft | 477 kts | 206° |
| 2026-04-23 08:22 | 37.50572 | 115.70252 | 28126 ft | 476 kts | 206° |
| 2026-04-23 08:22 | 37.47556 | 115.68537 | 28510 ft | 475 kts | 206° |
| 2026-04-23 08:22 | 37.44549 | 115.66828 | 28926 ft | 474 kts | 206° |
| 2026-04-23 08:22 | 37.41553 | 115.65125 | 29328 ft | 472 kts | 206° |
| 2026-04-23 08:23 | 37.38577 | 115.63392 | 29738 ft | 470 kts | 207° |
| 2026-04-23 08:23 | 37.35628 | 115.61630 | 30120 ft | 469 kts | 208° |
| 2026-04-23 08:23 | 37.32695 | 115.59859 | 30468 ft | 467 kts | 208° |
| 2026-04-23 08:23 | 37.29775 | 115.58095 | 30816 ft | 465 kts | 208° |
| 2026-04-23 08:24 | 37.26859 | 115.56339 | 31162 ft | 464 kts | 208° |
| 2026-04-23 08:24 | 37.23954 | 115.54599 | 31502 ft | 462 kts | 208° |
| 2026-04-23 08:24 | 37.21054 | 115.52870 | 31846 ft | 461 kts | 208° |
| 2026-04-23 08:24 | 37.18161 | 115.51155 | 32199 ft | 459 kts | 208° |
| 2026-04-23 08:25 | 37.15278 | 115.49454 | 32541 ft | 457 kts | 208° |
| 2026-04-23 08:25 | 37.12404 | 115.47756 | 32885 ft | 456 kts | 208° |
| 2026-04-23 08:25 | 37.09543 | 115.46067 | 33228 ft | 454 kts | 208° |
| 2026-04-23 08:25 | 37.06693 | 115.44382 | 33571 ft | 452 kts | 208° |
| 2026-04-23 08:26 | 37.03852 | 115.42703 | 33905 ft | 451 kts | 208° |
| 2026-04-23 08:26 | 37.01016 | 115.41029 | 34190 ft | 449 kts | 209° |
| 2026-04-23 08:26 | 36.98196 | 115.39365 | 34476 ft | 448 kts | 209° |
| 2026-04-23 08:26 | 36.96331 | 115.38263 | 34659 ft | 447 kts | 209° |